createdAt,value
2023-03-19T00:00:34.582Z,9.42
2023-03-19T00:03:02.086Z,9.45
2023-03-19T00:05:29.550Z,9.32
2023-03-19T00:07:56.950Z,9.32
2023-03-19T00:10:24.321Z,9.41
2023-03-19T00:12:52.525Z,9.50
2023-03-19T00:15:19.907Z,9.38
2023-03-19T00:17:47.795Z,9.35
2023-03-19T00:20:15.678Z,9.30
2023-03-19T00:22:42.993Z,9.23
2023-03-19T00:25:10.525Z,9.46
2023-03-19T00:27:38.582Z,9.58
2023-03-19T00:30:07.640Z,9.64
2023-03-19T00:32:36.678Z,9.56
2023-03-19T00:35:06.545Z,9.53
2023-03-19T00:37:35.226Z,9.58
2023-03-19T00:40:04.386Z,9.30
2023-03-19T00:42:32.133Z,9.17
2023-03-19T00:44:59.729Z,9.26
2023-03-19T00:47:27.810Z,9.15
2023-03-19T00:49:55.792Z,9.21
2023-03-19T00:52:23.451Z,9.18
2023-03-19T00:54:51.099Z,9.09
2023-03-19T00:57:19.753Z,9.00
2023-03-19T00:59:47.215Z,8.95
2023-03-19T01:02:14.686Z,9.07
2023-03-19T01:04:42.121Z,9.04
2023-03-19T01:07:10.542Z,8.88
2023-03-19T01:09:37.879Z,8.73
2023-03-19T01:12:05.661Z,8.71
2023-03-19T01:14:33.562Z,8.59
2023-03-19T01:17:01.096Z,8.56
2023-03-19T01:19:30.153Z,8.74
2023-03-19T01:21:57.918Z,8.80
2023-03-19T01:24:30.103Z,8.82
2023-03-19T01:26:57.536Z,8.81
2023-03-19T01:29:35.893Z,8.96
2023-03-19T01:32:11.821Z,8.79
2023-03-19T01:34:57.600Z,8.82
2023-03-19T01:37:25.264Z,8.98
2023-03-19T01:39:53.260Z,9.03
2023-03-19T01:42:20.789Z,9.07
2023-03-19T01:45:32.500Z,8.93
2023-03-19T01:48:38.005Z,8.75
2023-03-19T01:51:12.449Z,8.74
2023-03-19T01:54:16.092Z,8.63
2023-03-19T01:57:03.468Z,8.80
2023-03-19T02:00:07.670Z,8.79
2023-03-19T02:02:46.172Z,8.72
2023-03-19T02:05:25.808Z,8.72
2023-03-19T02:08:01.151Z,8.82
2023-03-19T02:10:30.895Z,8.74
2023-03-19T02:12:58.474Z,8.84
2023-03-19T02:15:26.221Z,8.82
2023-03-19T02:17:54.579Z,8.85
2023-03-19T02:20:30.983Z,8.93
2023-03-19T02:23:26.951Z,8.89
2023-03-19T02:26:08.716Z,8.94
2023-03-19T02:28:40.291Z,8.74
2023-03-19T02:31:08.977Z,8.69
2023-03-19T02:33:36.811Z,8.63
2023-03-19T02:36:07.613Z,8.62
2023-03-19T02:38:39.014Z,8.68
2023-03-19T02:41:08.419Z,8.62
2023-03-19T02:43:38.490Z,8.68
2023-03-19T02:46:09.763Z,8.66
2023-03-19T02:48:37.632Z,8.52
2023-03-19T02:51:05.719Z,8.64
2023-03-19T02:53:34.929Z,8.66
2023-03-19T02:56:02.740Z,8.55
2023-03-19T02:58:30.188Z,8.52
2023-03-19T03:00:57.657Z,8.62
2023-03-19T03:03:25.079Z,8.65
2023-03-19T03:05:52.562Z,8.62
2023-03-19T03:08:20.708Z,8.57
2023-03-19T03:10:48.528Z,8.55
2023-03-19T03:13:16.315Z,8.60
2023-03-19T03:15:43.702Z,8.57
2023-03-19T03:18:11.122Z,8.42
2023-03-19T03:20:38.493Z,8.51
2023-03-19T03:23:05.932Z,8.32
2023-03-19T03:25:33.347Z,8.22
2023-03-19T03:28:00.814Z,8.22
2023-03-19T03:30:28.215Z,8.33
2023-03-19T03:32:55.662Z,8.38
2023-03-19T03:35:23.352Z,8.55
2023-03-19T03:37:51.863Z,8.50
2023-03-19T03:40:20.478Z,8.60
2023-03-19T03:42:47.937Z,8.65
2023-03-19T03:45:15.936Z,8.55
2023-03-19T03:47:45.606Z,8.60
2023-03-19T03:50:13.879Z,8.63
2023-03-19T03:52:42.149Z,8.57
2023-03-19T03:55:10.324Z,8.69
2023-03-19T03:57:37.824Z,8.67
2023-03-19T04:00:06.208Z,8.62
2023-03-19T04:02:40.915Z,8.66
2023-03-19T04:05:11.768Z,8.71
2023-03-19T04:07:39.816Z,8.76
2023-03-19T04:10:07.752Z,8.74
2023-03-19T04:12:35.428Z,8.63
2023-03-19T04:15:04.167Z,8.48
2023-03-19T04:17:31.842Z,8.58
2023-03-19T04:19:59.323Z,8.82
2023-03-19T04:22:27.392Z,8.72
2023-03-19T04:24:54.924Z,8.63
2023-03-19T04:27:22.429Z,8.85
2023-03-19T04:29:50.210Z,8.76
2023-03-19T04:32:18.451Z,8.77
2023-03-19T04:34:46.772Z,8.76
2023-03-19T04:37:14.381Z,8.70
2023-03-19T04:39:47.467Z,8.78
2023-03-19T04:42:15.484Z,8.67
2023-03-19T04:44:54.957Z,8.68
2023-03-19T04:47:23.524Z,8.72
2023-03-19T04:49:58.113Z,8.76
2023-03-19T04:52:26.780Z,8.81
2023-03-19T04:54:55.447Z,8.69
2023-03-19T04:57:22.862Z,8.62
2023-03-19T04:59:52.333Z,8.62
2023-03-19T05:02:22.081Z,8.69
2023-03-19T05:04:50.430Z,8.63
2023-03-19T05:07:18.087Z,8.63
2023-03-19T05:09:46.495Z,8.67
2023-03-19T05:12:15.270Z,8.77
2023-03-19T05:14:47.994Z,8.73
2023-03-19T05:17:24.204Z,8.60
2023-03-19T05:20:06.061Z,8.67
2023-03-19T05:22:35.021Z,8.52
2023-03-19T05:25:02.652Z,8.66
2023-03-19T05:27:31.683Z,8.57
2023-03-19T05:30:05.560Z,8.62
2023-03-19T05:32:53.860Z,8.51
2023-03-19T05:35:32.745Z,8.52
2023-03-19T05:38:02.281Z,8.42
2023-03-19T05:40:29.956Z,8.33
2023-03-19T05:42:59.954Z,8.41
2023-03-19T05:45:29.381Z,8.44
2023-03-19T05:48:00.750Z,8.42
2023-03-19T05:50:29.339Z,8.46
2023-03-19T05:53:10.825Z,8.32
2023-03-19T05:55:41.179Z,8.32
2023-03-19T05:58:11.312Z,8.56
2023-03-19T06:00:39.273Z,8.47
2023-03-19T06:03:06.800Z,8.51
2023-03-19T06:05:52.683Z,8.49
2023-03-19T06:08:34.376Z,8.33
2023-03-19T06:11:24.407Z,8.45
2023-03-19T06:14:07.412Z,8.55
2023-03-19T06:16:39.216Z,8.53
2023-03-19T06:19:06.693Z,8.44
2023-03-19T06:21:34.113Z,8.49
2023-03-19T06:24:04.168Z,8.57
2023-03-19T06:26:35.958Z,8.66
2023-03-19T06:29:09.069Z,8.72
2023-03-19T06:31:40.044Z,8.59
2023-03-19T06:34:32.286Z,8.63
2023-03-19T06:36:59.822Z,8.64
2023-03-19T06:39:27.435Z,8.88
2023-03-19T06:41:54.916Z,8.93
2023-03-19T06:44:26.003Z,8.86
2023-03-19T06:46:53.492Z,9.04
2023-03-19T06:49:23.125Z,9.11
2023-03-19T06:51:50.468Z,9.20
2023-03-19T06:54:17.919Z,9.25
2023-03-19T06:56:46.279Z,9.38
2023-03-19T06:59:13.660Z,9.20
2023-03-19T07:01:41.764Z,9.24
2023-03-19T07:04:10.457Z,9.25
2023-03-19T07:06:37.960Z,9.33
2023-03-19T07:09:05.415Z,9.37
2023-03-19T07:11:35.728Z,9.42
2023-03-19T07:14:04.365Z,9.56
2023-03-19T07:16:31.876Z,9.62
2023-03-19T07:18:59.336Z,9.71
2023-03-19T07:21:26.727Z,9.83
2023-03-19T07:23:54.169Z,10.21
2023-03-19T07:26:21.579Z,10.32
2023-03-19T07:28:54.983Z,10.30
2023-03-19T07:31:22.395Z,10.38
2023-03-19T07:33:49.791Z,10.25
2023-03-19T07:36:17.358Z,10.24
2023-03-19T07:38:44.851Z,10.19
2023-03-19T07:41:12.240Z,10.10
2023-03-19T07:43:39.766Z,10.08
2023-03-19T07:46:08.059Z,10.36
2023-03-19T07:48:35.908Z,10.42
2023-03-19T07:51:03.494Z,10.39
2023-03-19T07:53:31.350Z,10.55
2023-03-19T07:55:58.788Z,10.79
2023-03-19T07:58:27.025Z,10.62
2023-03-19T08:00:54.640Z,10.91
2023-03-19T08:03:21.963Z,10.92
2023-03-19T08:05:50.126Z,10.80
2023-03-19T08:08:17.652Z,10.94
2023-03-19T08:10:45.583Z,10.99
2023-03-19T08:13:14.239Z,11.05
2023-03-19T08:15:41.701Z,11.05
2023-03-19T08:18:09.778Z,11.00
2023-03-19T08:20:37.213Z,10.91
2023-03-19T08:23:04.594Z,11.10
2023-03-19T08:25:32.720Z,11.18
2023-03-19T08:28:01.261Z,11.25
2023-03-19T08:30:28.713Z,11.30
2023-03-19T08:32:56.334Z,11.09
2023-03-19T08:35:26.964Z,11.28
2023-03-19T08:37:55.491Z,11.25
2023-03-19T08:40:23.873Z,11.32
2023-03-19T08:42:51.267Z,11.38
2023-03-19T08:45:19.119Z,11.51
2023-03-19T08:47:46.638Z,11.53
2023-03-19T08:50:14.215Z,11.65
2023-03-19T08:52:41.826Z,11.59
2023-03-19T08:55:09.696Z,11.76
2023-03-19T08:57:37.390Z,11.81
2023-03-19T09:00:05.812Z,11.86
2023-03-19T09:02:33.338Z,11.99
2023-03-19T09:05:00.709Z,12.06
2023-03-19T09:07:28.169Z,12.09
2023-03-19T09:09:55.597Z,12.45
2023-03-19T09:12:23.027Z,12.40
2023-03-19T09:14:50.367Z,12.67
2023-03-19T09:17:18.272Z,12.53
2023-03-19T09:19:45.680Z,12.40
2023-03-19T09:22:13.158Z,12.61
2023-03-19T09:24:40.879Z,12.39
2023-03-19T09:27:08.442Z,12.59
2023-03-19T09:29:36.191Z,12.57
2023-03-19T09:32:03.760Z,12.16
2023-03-19T09:34:31.679Z,12.21
2023-03-19T09:36:59.064Z,12.27
2023-03-19T09:39:26.728Z,12.46
2023-03-19T09:42:16.250Z,12.60
2023-03-19T09:44:45.662Z,12.59
2023-03-19T09:47:34.657Z,12.66
2023-03-19T09:50:12.028Z,12.71
2023-03-19T09:52:42.109Z,12.70
2023-03-19T09:55:25.014Z,12.58
2023-03-19T09:57:55.480Z,12.46
2023-03-19T10:00:28.977Z,12.40
2023-03-19T10:03:13.085Z,12.42
2023-03-19T10:06:04.760Z,12.41
2023-03-19T10:08:45.062Z,12.47
2023-03-19T10:11:30.899Z,12.55
2023-03-19T10:14:35.857Z,12.76
2023-03-19T10:17:07.255Z,12.75
2023-03-19T10:19:47.460Z,12.68
2023-03-19T10:22:37.839Z,13.04
2023-03-19T10:25:12.208Z,13.22
2023-03-19T10:27:40.620Z,13.41
2023-03-19T10:30:26.250Z,13.32
2023-03-19T10:33:03.646Z,13.21
2023-03-19T10:35:44.785Z,13.34
2023-03-19T10:38:18.069Z,13.45
2023-03-19T10:41:11.896Z,13.59
2023-03-19T10:43:40.205Z,13.66
2023-03-19T10:46:13.358Z,13.81
2023-03-19T10:48:46.315Z,13.89
2023-03-19T10:51:16.688Z,13.74
2023-03-19T10:53:44.216Z,13.76
2023-03-19T10:56:23.218Z,13.72
2023-03-19T10:59:21.558Z,13.83
2023-03-19T11:01:48.930Z,13.86
2023-03-19T11:04:20.346Z,13.97
2023-03-19T11:06:55.998Z,14.21
2023-03-19T11:09:35.767Z,14.08
2023-03-19T11:12:17.458Z,14.15
2023-03-19T11:14:48.314Z,14.04
2023-03-19T11:17:37.451Z,14.33
2023-03-19T11:20:34.500Z,14.28
2023-03-19T11:23:07.793Z,14.09
2023-03-19T11:25:40.172Z,14.01
2023-03-19T11:28:21.547Z,14.12
2023-03-19T11:31:06.601Z,14.07
2023-03-19T11:33:58.964Z,14.14
2023-03-19T11:36:51.540Z,14.22
2023-03-19T11:39:28.942Z,14.42
2023-03-19T11:42:11.879Z,14.35
2023-03-19T11:45:02.668Z,14.39
2023-03-19T11:47:32.475Z,14.45
2023-03-19T11:50:45.519Z,14.63
2023-03-19T11:53:39.180Z,14.67
2023-03-19T11:56:28.301Z,14.27
2023-03-19T11:59:18.106Z,14.28
2023-03-19T12:02:00.656Z,14.38
2023-03-19T12:04:55.842Z,14.27
2023-03-19T12:07:29.340Z,14.51
2023-03-19T12:10:05.690Z,14.58
2023-03-19T12:12:49.342Z,14.61
2023-03-19T12:15:29.816Z,14.83
2023-03-19T12:18:06.175Z,14.65
2023-03-19T12:20:36.433Z,14.65
2023-03-19T12:23:26.656Z,14.58
2023-03-19T12:26:04.588Z,14.58
2023-03-19T12:28:36.359Z,14.65
2023-03-19T12:31:29.716Z,14.56
2023-03-19T12:34:29.755Z,14.71
2023-03-19T12:37:37.682Z,14.62
2023-03-19T12:40:53.143Z,14.77
2023-03-19T12:43:38.023Z,14.86
2023-03-19T12:46:08.392Z,14.91
2023-03-19T12:48:46.695Z,14.74
2023-03-19T12:51:23.872Z,14.76
2023-03-19T12:54:00.148Z,14.84
2023-03-19T12:56:39.325Z,14.89
2023-03-19T12:59:18.918Z,14.97
2023-03-19T13:01:53.798Z,14.85
2023-03-19T13:04:26.581Z,14.84
2023-03-19T13:06:57.810Z,15.04
2023-03-19T13:09:58.227Z,15.02
2023-03-19T13:12:29.139Z,15.28
2023-03-19T13:15:10.572Z,15.31
2023-03-19T13:18:10.601Z,15.51
2023-03-19T13:21:04.107Z,15.29
2023-03-19T13:23:36.052Z,15.32
2023-03-19T13:26:08.552Z,15.37
2023-03-19T13:28:38.628Z,15.42
2023-03-19T13:31:08.967Z,15.34
2023-03-19T13:33:40.695Z,15.49
2023-03-19T13:36:09.088Z,15.40
2023-03-19T13:38:44.198Z,15.29
2023-03-19T13:41:33.151Z,15.57
2023-03-19T13:44:20.126Z,15.49
2023-03-19T13:46:48.818Z,15.39
2023-03-19T13:49:19.164Z,15.36
2023-03-19T13:51:50.626Z,15.41
2023-03-19T13:54:25.262Z,15.34
2023-03-19T13:56:58.672Z,15.53
2023-03-19T13:59:34.022Z,15.53
2023-03-19T14:02:03.369Z,15.52
2023-03-19T14:04:37.340Z,15.55
2023-03-19T14:07:15.120Z,15.58
2023-03-19T14:09:45.691Z,15.56
2023-03-19T14:12:16.041Z,15.53
2023-03-19T14:14:54.400Z,15.53
2023-03-19T14:17:24.274Z,15.58
2023-03-19T14:19:54.251Z,15.65
2023-03-19T14:22:53.149Z,15.49
2023-03-19T14:25:23.376Z,15.47
2023-03-19T14:27:59.404Z,15.61
2023-03-19T14:30:46.969Z,15.55
2023-03-19T14:33:31.135Z,15.63
2023-03-19T14:36:02.929Z,15.57
2023-03-19T14:38:37.863Z,15.51
2023-03-19T14:41:07.897Z,15.56
2023-03-19T14:44:13.578Z,15.51
2023-03-19T14:47:24.429Z,15.56
2023-03-19T14:50:00.872Z,15.51
2023-03-19T14:52:46.928Z,15.51
2023-03-19T14:55:17.520Z,15.51
2023-03-19T14:57:44.920Z,15.64
2023-03-19T15:00:19.449Z,15.53
2023-03-19T15:02:51.977Z,15.51
2023-03-19T15:05:29.723Z,15.49
2023-03-19T15:08:02.931Z,15.38
2023-03-19T15:10:43.795Z,15.36
2023-03-19T15:13:38.009Z,15.46
2023-03-19T15:16:23.315Z,15.48
2023-03-19T15:18:50.793Z,15.58
2023-03-19T15:21:18.776Z,15.54
2023-03-19T15:23:47.128Z,15.39
2023-03-19T15:26:15.995Z,15.34
2023-03-19T15:28:53.876Z,15.29
2023-03-19T15:31:36.642Z,15.31
2023-03-19T15:34:28.205Z,15.25
2023-03-19T15:37:02.590Z,15.21
2023-03-19T15:39:36.258Z,15.14
2023-03-19T15:42:05.002Z,15.10
2023-03-19T15:44:42.696Z,15.09
2023-03-19T15:47:17.356Z,15.08
2023-03-19T15:49:52.706Z,14.94
2023-03-19T15:52:20.971Z,14.84
2023-03-19T15:54:48.706Z,14.78
2023-03-19T15:57:17.880Z,14.78
2023-03-19T15:59:46.662Z,14.86
2023-03-19T16:02:31.184Z,14.86
2023-03-19T16:05:21.588Z,14.79
2023-03-19T16:07:54.953Z,14.89
2023-03-19T16:10:28.395Z,14.82
2023-03-19T16:12:56.094Z,14.77
2023-03-19T16:15:47.250Z,14.79
2023-03-19T16:18:20.494Z,14.74
2023-03-19T16:21:10.930Z,14.68
2023-03-19T16:23:42.241Z,14.62
2023-03-19T16:26:28.726Z,14.58
2023-03-19T16:29:26.290Z,14.56
2023-03-19T16:32:08.452Z,14.50
2023-03-19T16:34:46.776Z,14.49
2023-03-19T16:37:32.102Z,14.44
2023-03-19T16:40:23.742Z,14.49
2023-03-19T16:42:52.591Z,14.48
2023-03-19T16:45:24.844Z,14.43
2023-03-19T16:47:57.153Z,14.35
2023-03-19T16:50:31.765Z,14.36
2023-03-19T16:53:02.555Z,14.32
2023-03-19T16:55:32.624Z,14.28
2023-03-19T16:58:03.651Z,14.38
2023-03-19T17:00:32.947Z,14.31
2023-03-19T17:03:00.810Z,14.35
2023-03-19T17:05:29.384Z,14.33
2023-03-19T17:07:56.977Z,14.32
2023-03-19T17:10:27.733Z,14.30
2023-03-19T17:12:56.440Z,14.26
2023-03-19T17:15:28.715Z,14.19
2023-03-19T17:17:57.271Z,14.22
2023-03-19T17:20:31.880Z,14.26
2023-03-19T17:23:00.119Z,14.15
2023-03-19T17:25:28.135Z,14.17
2023-03-19T17:27:55.631Z,14.09
2023-03-19T17:30:23.135Z,14.13
2023-03-19T17:32:51.805Z,14.12
2023-03-19T17:35:37.637Z,14.03
2023-03-19T17:38:05.102Z,14.04
2023-03-19T17:40:34.554Z,14.02
2023-03-19T17:43:02.298Z,14.07
2023-03-19T17:45:30.482Z,14.08
2023-03-19T17:47:58.638Z,14.00
2023-03-19T17:50:31.418Z,14.00
2023-03-19T17:53:00.196Z,14.00
2023-03-19T17:55:29.701Z,13.94
2023-03-19T17:57:57.197Z,13.84
2023-03-19T18:00:24.836Z,13.87
2023-03-19T18:02:54.218Z,13.79
2023-03-19T18:05:24.174Z,13.78
2023-03-19T18:07:54.875Z,13.80
2023-03-19T18:10:26.642Z,13.63
2023-03-19T18:12:54.849Z,13.42
2023-03-19T18:15:23.866Z,13.37
2023-03-19T18:17:54.543Z,13.33
2023-03-19T18:20:25.756Z,13.36
2023-03-19T18:22:53.299Z,13.22
2023-03-19T18:25:25.882Z,13.13
2023-03-19T18:27:53.952Z,13.14
2023-03-19T18:30:23.490Z,12.99
2023-03-19T18:32:56.284Z,13.10
2023-03-19T18:35:30.703Z,13.03
2023-03-19T18:37:58.909Z,13.01
2023-03-19T18:40:29.335Z,12.91
2023-03-19T18:42:57.086Z,12.89
2023-03-19T18:45:28.931Z,12.82
2023-03-19T18:48:00.640Z,12.82
2023-03-19T18:50:32.529Z,12.77
2023-03-19T18:52:59.910Z,12.78
2023-03-19T18:55:29.862Z,12.69
2023-03-19T18:58:01.192Z,12.67
2023-03-19T19:00:32.249Z,12.63
2023-03-19T19:03:00.234Z,12.61
2023-03-19T19:05:30.365Z,12.65
2023-03-19T19:08:02.762Z,12.71
2023-03-19T19:10:39.148Z,12.82
2023-03-19T19:13:28.371Z,12.75
2023-03-19T19:16:05.277Z,12.75
2023-03-19T19:18:32.859Z,12.84
2023-03-19T19:21:07.146Z,12.78
2023-03-19T19:23:34.582Z,12.72
2023-03-19T19:26:02.115Z,12.75
2023-03-19T19:28:33.089Z,12.56
2023-03-19T19:31:00.961Z,12.61
2023-03-19T19:33:33.191Z,12.66
2023-03-19T19:36:01.755Z,12.58
2023-03-19T19:38:30.219Z,12.50
2023-03-19T19:41:02.035Z,12.55
2023-03-19T19:43:31.404Z,12.50
2023-03-19T19:45:59.589Z,12.45
2023-03-19T19:48:30.541Z,12.42
2023-03-19T19:50:58.169Z,12.43
2023-03-19T19:53:26.441Z,12.43
2023-03-19T19:55:53.877Z,12.39
2023-03-19T19:58:24.888Z,12.41
2023-03-19T20:01:02.793Z,12.36
2023-03-19T20:03:33.171Z,12.32
2023-03-19T20:06:01.652Z,12.35
2023-03-19T20:08:29.200Z,12.30
2023-03-19T20:10:57.387Z,12.48
2023-03-19T20:13:27.706Z,12.43
2023-03-19T20:15:57.272Z,12.37
2023-03-19T20:18:30.789Z,12.38
2023-03-19T20:20:59.729Z,12.29
2023-03-19T20:23:27.291Z,12.30
2023-03-19T20:25:55.286Z,12.39
2023-03-19T20:28:28.053Z,12.30
2023-03-19T20:30:55.682Z,12.28
2023-03-19T20:33:23.898Z,12.21
2023-03-19T20:35:51.431Z,12.20
2023-03-19T20:38:20.140Z,12.21
2023-03-19T20:40:51.202Z,12.10
2023-03-19T20:43:35.592Z,12.06
2023-03-19T20:46:06.364Z,12.11
2023-03-19T20:48:34.323Z,12.14
2023-03-19T20:51:03.818Z,12.10
2023-03-19T20:53:31.272Z,12.20
2023-03-19T20:56:03.458Z,12.03
2023-03-19T20:58:42.781Z,12.00
2023-03-19T21:01:12.386Z,12.09
2023-03-19T21:03:40.341Z,12.08
2023-03-19T21:06:24.235Z,12.15
2023-03-19T21:08:57.172Z,12.28
2023-03-19T21:11:38.263Z,12.19
2023-03-19T21:14:06.299Z,12.18
2023-03-19T21:16:34.079Z,12.10
2023-03-19T21:19:16.690Z,12.17
2023-03-19T21:21:44.246Z,12.17
2023-03-19T21:24:15.680Z,12.07
2023-03-19T21:26:44.195Z,12.00
2023-03-19T21:29:19.997Z,12.04
2023-03-19T21:31:48.100Z,11.96
2023-03-19T21:34:15.846Z,12.01
2023-03-19T21:36:43.163Z,12.00
2023-03-19T21:39:10.764Z,12.04
2023-03-19T21:41:38.112Z,12.00
2023-03-19T21:44:19.554Z,12.08
2023-03-19T21:46:48.382Z,12.02
2023-03-19T21:49:20.302Z,11.95
2023-03-19T21:51:47.787Z,11.92
2023-03-19T21:54:15.924Z,11.88
2023-03-19T21:56:45.560Z,11.92
2023-03-19T21:59:27.764Z,11.90
2023-03-19T22:01:56.366Z,11.84
2023-03-19T22:04:23.820Z,11.77
2023-03-19T22:06:57.580Z,11.71
2023-03-19T22:09:24.968Z,11.74
2023-03-19T22:11:55.381Z,11.70
2023-03-19T22:14:27.160Z,11.76
2023-03-19T22:16:58.565Z,11.81
2023-03-19T22:19:26.112Z,11.84
2023-03-19T22:21:53.549Z,11.79
2023-03-19T22:24:21.068Z,11.74
2023-03-19T22:27:01.178Z,11.70
2023-03-19T22:29:31.180Z,11.71
2023-03-19T22:31:58.740Z,11.71
2023-03-19T22:34:27.933Z,11.73
2023-03-19T22:36:55.712Z,11.74
2023-03-19T22:39:23.091Z,11.75
2023-03-19T22:41:50.897Z,11.60
2023-03-19T22:44:26.014Z,11.76
2023-03-19T22:46:54.774Z,11.70
2023-03-19T22:49:22.238Z,11.74
2023-03-19T22:51:49.566Z,11.56
2023-03-19T22:54:18.232Z,11.44
2023-03-19T22:56:45.828Z,11.55
2023-03-19T22:59:14.893Z,11.64
2023-03-19T23:01:46.479Z,11.60
2023-03-19T23:04:18.721Z,11.67
2023-03-19T23:06:46.640Z,11.54
2023-03-19T23:09:26.496Z,11.39
2023-03-19T23:11:54.385Z,11.40
2023-03-19T23:14:29.683Z,11.32
2023-03-19T23:17:02.085Z,11.34
2023-03-19T23:19:35.210Z,11.26
2023-03-19T23:22:05.125Z,11.17
2023-03-19T23:24:33.702Z,11.25
2023-03-19T23:27:02.461Z,11.24
2023-03-19T23:29:44.416Z,11.22
2023-03-19T23:32:12.626Z,11.25
2023-03-19T23:34:56.450Z,11.17
2023-03-19T23:37:25.531Z,11.16
2023-03-19T23:39:54.794Z,10.99
2023-03-19T23:42:27.884Z,10.99
2023-03-19T23:44:59.069Z,11.04
2023-03-19T23:47:28.856Z,11.14
2023-03-19T23:50:00.492Z,11.08
2023-03-19T23:52:27.963Z,11.02
2023-03-19T23:54:57.009Z,10.99
2023-03-19T23:57:26.450Z,10.94
2023-03-19T23:59:53.845Z,10.91
